sensor_id;sensor_type;location;lat;lon;timestamp;P1;durP1;ratioP1;P2;durP2;ratioP2
11211;SDS011;5663;50.864;12.096;2023-11-19T00:02:13;3.43;;;2.70;;
11211;SDS011;5663;50.864;12.096;2023-11-19T00:04:41;3.00;;;2.50;;
11211;SDS011;5663;50.864;12.096;2023-11-19T00:07:10;3.03;;;2.53;;
11211;SDS011;5663;50.864;12.096;2023-11-19T00:09:41;3.07;;;2.60;;
11211;SDS011;5663;50.864;12.096;2023-11-19T00:12:11;4.40;;;2.20;;
11211;SDS011;5663;50.864;12.096;2023-11-19T00:14:40;2.93;;;2.30;;
11211;SDS011;5663;50.864;12.096;2023-11-19T00:17:10;2.43;;;2.20;;
11211;SDS011;5663;50.864;12.096;2023-11-19T00:19:42;2.10;;;1.90;;
11211;SDS011;5663;50.864;12.096;2023-11-19T00:22:10;2.37;;;2.03;;
11211;SDS011;5663;50.864;12.096;2023-11-19T00:24:38;2.40;;;1.87;;
11211;SDS011;5663;50.864;12.096;2023-11-19T00:27:10;2.17;;;1.80;;
11211;SDS011;5663;50.864;12.096;2023-11-19T00:29:42;1.80;;;1.70;;
11211;SDS011;5663;50.864;12.096;2023-11-19T00:32:12;1.90;;;1.60;;
11211;SDS011;5663;50.864;12.096;2023-11-19T00:34:43;1.70;;;1.60;;
11211;SDS011;5663;50.864;12.096;2023-11-19T00:37:11;1.80;;;1.53;;
11211;SDS011;5663;50.864;12.096;2023-11-19T00:39:39;1.73;;;1.50;;
11211;SDS011;5663;50.864;12.096;2023-11-19T00:42:09;1.80;;;1.57;;
11211;SDS011;5663;50.864;12.096;2023-11-19T00:44:37;2.23;;;1.47;;
11211;SDS011;5663;50.864;12.096;2023-11-19T00:47:05;1.77;;;1.53;;
11211;SDS011;5663;50.864;12.096;2023-11-19T00:49:34;1.30;;;1.20;;
11211;SDS011;5663;50.864;12.096;2023-11-19T00:52:03;2.10;;;1.47;;
11211;SDS011;5663;50.864;12.096;2023-11-19T00:54:32;1.83;;;1.53;;
11211;SDS011;5663;50.864;12.096;2023-11-19T00:57:00;1.50;;;1.40;;
11211;SDS011;5663;50.864;12.096;2023-11-19T00:59:29;1.50;;;1.40;;
11211;SDS011;5663;50.864;12.096;2023-11-19T01:01:57;1.30;;;1.17;;
11211;SDS011;5663;50.864;12.096;2023-11-19T01:04:29;1.50;;;1.40;;
11211;SDS011;5663;50.864;12.096;2023-11-19T01:06:58;1.87;;;1.20;;
11211;SDS011;5663;50.864;12.096;2023-11-19T01:09:27;1.80;;;1.57;;
11211;SDS011;5663;50.864;12.096;2023-11-19T01:11:58;1.67;;;1.57;;
11211;SDS011;5663;50.864;12.096;2023-11-19T01:14:28;1.40;;;1.30;;
11211;SDS011;5663;50.864;12.096;2023-11-19T01:16:56;2.23;;;1.40;;
11211;SDS011;5663;50.864;12.096;2023-11-19T01:19:27;1.50;;;1.40;;
11211;SDS011;5663;50.864;12.096;2023-11-19T01:22:09;1.47;;;1.37;;
11211;SDS011;5663;50.864;12.096;2023-11-19T01:24:38;1.90;;;1.57;;
11211;SDS011;5663;50.864;12.096;2023-11-19T01:27:09;1.63;;;1.53;;
11211;SDS011;5663;50.864;12.096;2023-11-19T01:29:38;1.43;;;1.33;;
11211;SDS011;5663;50.864;12.096;2023-11-19T01:32:09;1.97;;;1.50;;
11211;SDS011;5663;50.864;12.096;2023-11-19T01:34:40;1.53;;;1.43;;
11211;SDS011;5663;50.864;12.096;2023-11-19T01:37:08;1.90;;;1.50;;
11211;SDS011;5663;50.864;12.096;2023-11-19T01:39:39;1.50;;;1.40;;
11211;SDS011;5663;50.864;12.096;2023-11-19T01:42:07;2.00;;;1.70;;
11211;SDS011;5663;50.864;12.096;2023-11-19T01:44:35;1.40;;;1.30;;
11211;SDS011;5663;50.864;12.096;2023-11-19T01:47:03;1.50;;;1.40;;
11211;SDS011;5663;50.864;12.096;2023-11-19T01:49:32;1.93;;;1.50;;
11211;SDS011;5663;50.864;12.096;2023-11-19T01:52:02;1.50;;;1.40;;
11211;SDS011;5663;50.864;12.096;2023-11-19T01:54:31;2.13;;;1.50;;
11211;SDS011;5663;50.864;12.096;2023-11-19T01:57:19;1.37;;;1.27;;
11211;SDS011;5663;50.864;12.096;2023-11-19T01:59:54;1.47;;;1.37;;
11211;SDS011;5663;50.864;12.096;2023-11-19T02:02:22;1.40;;;1.17;;
11211;SDS011;5663;50.864;12.096;2023-11-19T02:04:49;1.67;;;1.37;;
11211;SDS011;5663;50.864;12.096;2023-11-19T02:07:19;4.13;;;1.40;;
11211;SDS011;5663;50.864;12.096;2023-11-19T02:09:50;1.40;;;1.30;;
11211;SDS011;5663;50.864;12.096;2023-11-19T02:12:18;3.20;;;1.30;;
11211;SDS011;5663;50.864;12.096;2023-11-19T02:14:49;2.90;;;1.53;;
11211;SDS011;5663;50.864;12.096;2023-11-19T02:17:25;1.30;;;1.20;;
11211;SDS011;5663;50.864;12.096;2023-11-19T02:19:56;1.50;;;1.40;;
11211;SDS011;5663;50.864;12.096;2023-11-19T02:22:25;1.87;;;1.23;;
11211;SDS011;5663;50.864;12.096;2023-11-19T02:24:57;1.50;;;1.10;;
11211;SDS011;5663;50.864;12.096;2023-11-19T02:27:30;1.37;;;1.27;;
11211;SDS011;5663;50.864;12.096;2023-11-19T02:30:11;1.50;;;1.30;;
11211;SDS011;5663;50.864;12.096;2023-11-19T02:32:42;1.70;;;1.40;;
11211;SDS011;5663;50.864;12.096;2023-11-19T02:35:10;1.43;;;1.33;;
11211;SDS011;5663;50.864;12.096;2023-11-19T02:37:42;2.07;;;1.20;;
11211;SDS011;5663;50.864;12.096;2023-11-19T02:40:12;2.73;;;1.27;;
11211;SDS011;5663;50.864;12.096;2023-11-19T02:42:44;1.30;;;1.20;;
11211;SDS011;5663;50.864;12.096;2023-11-19T02:45:13;1.70;;;1.33;;
11211;SDS011;5663;50.864;12.096;2023-11-19T02:47:44;1.40;;;1.17;;
11211;SDS011;5663;50.864;12.096;2023-11-19T02:50:13;1.40;;;1.30;;
11211;SDS011;5663;50.864;12.096;2023-11-19T02:52:41;1.40;;;1.30;;
11211;SDS011;5663;50.864;12.096;2023-11-19T02:55:10;1.30;;;1.20;;
11211;SDS011;5663;50.864;12.096;2023-11-19T02:57:41;2.00;;;1.20;;
11211;SDS011;5663;50.864;12.096;2023-11-19T03:00:16;0.90;;;0.90;;
11211;SDS011;5663;50.864;12.096;2023-11-19T03:02:50;1.10;;;1.00;;
11211;SDS011;5663;50.864;12.096;2023-11-19T03:05:25;1.00;;;0.90;;
11211;SDS011;5663;50.864;12.096;2023-11-19T03:07:56;1.50;;;0.90;;
11211;SDS011;5663;50.864;12.096;2023-11-19T03:10:24;1.13;;;1.03;;
11211;SDS011;5663;50.864;12.096;2023-11-19T03:12:53;2.30;;;1.00;;
11211;SDS011;5663;50.864;12.096;2023-11-19T03:15:24;1.53;;;1.00;;
11211;SDS011;5663;50.864;12.096;2023-11-19T03:17:52;1.20;;;1.10;;
11211;SDS011;5663;50.864;12.096;2023-11-19T03:20:21;1.03;;;0.90;;
11211;SDS011;5663;50.864;12.096;2023-11-19T03:22:52;0.93;;;0.93;;
11211;SDS011;5663;50.864;12.096;2023-11-19T03:25:21;1.27;;;0.90;;
11211;SDS011;5663;50.864;12.096;2023-11-19T03:27:49;1.17;;;1.07;;
11211;SDS011;5663;50.864;12.096;2023-11-19T03:30:17;0.93;;;0.90;;
11211;SDS011;5663;50.864;12.096;2023-11-19T03:32:50;0.70;;;0.70;;
11211;SDS011;5663;50.864;12.096;2023-11-19T03:35:19;0.73;;;0.73;;
11211;SDS011;5663;50.864;12.096;2023-11-19T03:37:47;0.80;;;0.80;;
11211;SDS011;5663;50.864;12.096;2023-11-19T03:40:15;1.37;;;0.90;;
11211;SDS011;5663;50.864;12.096;2023-11-19T03:42:45;0.60;;;0.57;;
11211;SDS011;5663;50.864;12.096;2023-11-19T03:45:13;1.83;;;0.70;;
11211;SDS011;5663;50.864;12.096;2023-11-19T03:47:42;0.80;;;0.80;;
11211;SDS011;5663;50.864;12.096;2023-11-19T03:50:12;0.80;;;0.80;;
11211;SDS011;5663;50.864;12.096;2023-11-19T03:52:43;0.90;;;0.90;;
11211;SDS011;5663;50.864;12.096;2023-11-19T03:55:11;0.83;;;0.83;;
11211;SDS011;5663;50.864;12.096;2023-11-19T03:57:40;0.70;;;0.70;;
11211;SDS011;5663;50.864;12.096;2023-11-19T04:00:09;0.87;;;0.70;;
11211;SDS011;5663;50.864;12.096;2023-11-19T04:02:40;0.70;;;0.70;;
11211;SDS011;5663;50.864;12.096;2023-11-19T04:05:09;0.73;;;0.70;;
11211;SDS011;5663;50.864;12.096;2023-11-19T04:07:38;1.03;;;0.73;;
11211;SDS011;5663;50.864;12.096;2023-11-19T04:10:08;0.63;;;0.63;;
11211;SDS011;5663;50.864;12.096;2023-11-19T04:12:37;0.70;;;0.70;;
11211;SDS011;5663;50.864;12.096;2023-11-19T04:15:07;0.80;;;0.70;;
11211;SDS011;5663;50.864;12.096;2023-11-19T04:17:35;1.20;;;0.67;;
11211;SDS011;5663;50.864;12.096;2023-11-19T04:20:05;1.13;;;0.70;;
11211;SDS011;5663;50.864;12.096;2023-11-19T04:22:39;0.90;;;0.60;;
11211;SDS011;5663;50.864;12.096;2023-11-19T04:25:07;0.77;;;0.53;;
11211;SDS011;5663;50.864;12.096;2023-11-19T04:27:36;2.43;;;0.70;;
11211;SDS011;5663;50.864;12.096;2023-11-19T04:30:07;0.67;;;0.53;;
11211;SDS011;5663;50.864;12.096;2023-11-19T04:32:38;1.20;;;0.77;;
11211;SDS011;5663;50.864;12.096;2023-11-19T04:35:08;0.70;;;0.50;;
11211;SDS011;5663;50.864;12.096;2023-11-19T04:37:37;0.67;;;0.60;;
11211;SDS011;5663;50.864;12.096;2023-11-19T04:40:07;1.00;;;0.60;;
11211;SDS011;5663;50.864;12.096;2023-11-19T04:42:35;0.40;;;0.40;;
11211;SDS011;5663;50.864;12.096;2023-11-19T04:45:05;0.70;;;0.60;;
11211;SDS011;5663;50.864;12.096;2023-11-19T04:47:35;0.50;;;0.50;;
11211;SDS011;5663;50.864;12.096;2023-11-19T04:50:04;0.50;;;0.50;;
11211;SDS011;5663;50.864;12.096;2023-11-19T04:52:43;0.60;;;0.60;;
11211;SDS011;5663;50.864;12.096;2023-11-19T04:55:14;0.57;;;0.57;;
11211;SDS011;5663;50.864;12.096;2023-11-19T04:57:42;0.50;;;0.50;;
11211;SDS011;5663;50.864;12.096;2023-11-19T05:00:10;0.87;;;0.37;;
11211;SDS011;5663;50.864;12.096;2023-11-19T05:02:42;0.73;;;0.53;;
11211;SDS011;5663;50.864;12.096;2023-11-19T05:05:10;0.77;;;0.50;;
11211;SDS011;5663;50.864;12.096;2023-11-19T05:07:45;0.70;;;0.50;;
11211;SDS011;5663;50.864;12.096;2023-11-19T05:10:14;0.20;;;0.20;;
11211;SDS011;5663;50.864;12.096;2023-11-19T05:12:43;0.50;;;0.50;;
11211;SDS011;5663;50.864;12.096;2023-11-19T05:15:12;0.40;;;0.40;;
11211;SDS011;5663;50.864;12.096;2023-11-19T05:17:41;0.30;;;0.27;;
11211;SDS011;5663;50.864;12.096;2023-11-19T05:20:09;0.40;;;0.40;;
11211;SDS011;5663;50.864;12.096;2023-11-19T05:22:40;0.10;;;0.10;;
11211;SDS011;5663;50.864;12.096;2023-11-19T05:25:13;0.20;;;0.20;;
11211;SDS011;5663;50.864;12.096;2023-11-19T05:27:41;1.63;;;0.40;;
11211;SDS011;5663;50.864;12.096;2023-11-19T05:30:09;0.30;;;0.30;;
11211;SDS011;5663;50.864;12.096;2023-11-19T05:32:37;3.83;;;0.47;;
11211;SDS011;5663;50.864;12.096;2023-11-19T05:35:07;0.33;;;0.33;;
11211;SDS011;5663;50.864;12.096;2023-11-19T05:37:35;1.07;;;0.30;;
11211;SDS011;5663;50.864;12.096;2023-11-19T05:40:03;0.23;;;0.23;;
11211;SDS011;5663;50.864;12.096;2023-11-19T05:42:40;0.67;;;0.20;;
11211;SDS011;5663;50.864;12.096;2023-11-19T05:45:11;0.40;;;0.30;;
11211;SDS011;5663;50.864;12.096;2023-11-19T05:47:39;0.30;;;0.30;;
11211;SDS011;5663;50.864;12.096;2023-11-19T05:50:08;0.37;;;0.37;;
11211;SDS011;5663;50.864;12.096;2023-11-19T05:52:38;0.43;;;0.43;;
11211;SDS011;5663;50.864;12.096;2023-11-19T05:55:06;0.47;;;0.33;;
11211;SDS011;5663;50.864;12.096;2023-11-19T05:57:37;0.53;;;0.47;;
11211;SDS011;5663;50.864;12.096;2023-11-19T06:00:08;0.20;;;0.20;;
11211;SDS011;5663;50.864;12.096;2023-11-19T06:02:39;0.30;;;0.30;;
11211;SDS011;5663;50.864;12.096;2023-11-19T06:05:08;0.23;;;0.23;;
11211;SDS011;5663;50.864;12.096;2023-11-19T06:07:37;0.30;;;0.30;;
11211;SDS011;5663;50.864;12.096;2023-11-19T06:10:06;0.23;;;0.23;;
11211;SDS011;5663;50.864;12.096;2023-11-19T06:12:35;0.40;;;0.30;;
11211;SDS011;5663;50.864;12.096;2023-11-19T06:15:07;0.50;;;0.40;;
11211;SDS011;5663;50.864;12.096;2023-11-19T06:17:36;0.20;;;0.20;;
11211;SDS011;5663;50.864;12.096;2023-11-19T06:20:05;0.20;;;0.20;;
11211;SDS011;5663;50.864;12.096;2023-11-19T06:22:34;0.50;;;0.50;;
11211;SDS011;5663;50.864;12.096;2023-11-19T06:25:02;0.37;;;0.37;;
11211;SDS011;5663;50.864;12.096;2023-11-19T06:27:33;0.43;;;0.40;;
11211;SDS011;5663;50.864;12.096;2023-11-19T06:30:07;1.33;;;0.30;;
11211;SDS011;5663;50.864;12.096;2023-11-19T06:32:39;1.13;;;0.30;;
11211;SDS011;5663;50.864;12.096;2023-11-19T06:35:08;0.30;;;0.30;;
11211;SDS011;5663;50.864;12.096;2023-11-19T06:37:38;0.40;;;0.40;;
11211;SDS011;5663;50.864;12.096;2023-11-19T06:40:07;2.63;;;0.77;;
11211;SDS011;5663;50.864;12.096;2023-11-19T06:42:37;3.23;;;0.70;;
11211;SDS011;5663;50.864;12.096;2023-11-19T06:45:08;0.50;;;0.50;;
11211;SDS011;5663;50.864;12.096;2023-11-19T06:47:36;0.47;;;0.47;;
11211;SDS011;5663;50.864;12.096;2023-11-19T06:50:05;0.60;;;0.57;;
11211;SDS011;5663;50.864;12.096;2023-11-19T06:52:41;0.43;;;0.43;;
11211;SDS011;5663;50.864;12.096;2023-11-19T06:58:09;0.30;;;0.30;;
11211;SDS011;5663;50.864;12.096;2023-11-19T07:00:50;0.50;;;0.40;;
11211;SDS011;5663;50.864;12.096;2023-11-19T07:03:20;0.60;;;0.60;;
11211;SDS011;5663;50.864;12.096;2023-11-19T07:06:00;0.30;;;0.30;;
11211;SDS011;5663;50.864;12.096;2023-11-19T07:08:37;0.27;;;0.27;;
11211;SDS011;5663;50.864;12.096;2023-11-19T07:11:08;0.23;;;0.23;;
11211;SDS011;5663;50.864;12.096;2023-11-19T07:13:41;0.40;;;0.23;;
11211;SDS011;5663;50.864;12.096;2023-11-19T07:16:18;0.53;;;0.50;;
11211;SDS011;5663;50.864;12.096;2023-11-19T07:18:51;0.57;;;0.57;;
11211;SDS011;5663;50.864;12.096;2023-11-19T07:21:29;0.83;;;0.67;;
11211;SDS011;5663;50.864;12.096;2023-11-19T07:24:34;0.60;;;0.60;;
11211;SDS011;5663;50.864;12.096;2023-11-19T07:27:03;2.27;;;0.50;;
11211;SDS011;5663;50.864;12.096;2023-11-19T07:29:42;1.07;;;0.93;;
11211;SDS011;5663;50.864;12.096;2023-11-19T07:32:51;4.33;;;1.63;;
11211;SDS011;5663;50.864;12.096;2023-11-19T07:35:23;1.97;;;1.20;;
11211;SDS011;5663;50.864;12.096;2023-11-19T07:38:05;0.97;;;0.70;;
11211;SDS011;5663;50.864;12.096;2023-11-19T07:40:43;1.73;;;0.30;;
11211;SDS011;5663;50.864;12.096;2023-11-19T07:43:34;0.60;;;0.50;;
11211;SDS011;5663;50.864;12.096;2023-11-19T07:46:10;2.90;;;0.60;;
11211;SDS011;5663;50.864;12.096;2023-11-19T07:48:44;0.50;;;0.50;;
11211;SDS011;5663;50.864;12.096;2023-11-19T07:51:51;1.53;;;0.83;;
11211;SDS011;5663;50.864;12.096;2023-11-19T07:54:11;2.20;;;0.80;;
11211;SDS011;5663;50.864;12.096;2023-11-19T07:56:51;0.63;;;0.50;;
11211;SDS011;5663;50.864;12.096;2023-11-19T07:59:39;0.50;;;0.50;;
11211;SDS011;5663;50.864;12.096;2023-11-19T08:02:17;2.13;;;0.93;;
11211;SDS011;5663;50.864;12.096;2023-11-19T08:11:20;1.13;;;0.83;;
11211;SDS011;5663;50.864;12.096;2023-11-19T08:13:52;1.27;;;0.77;;
11211;SDS011;5663;50.864;12.096;2023-11-19T08:16:24;2.73;;;0.70;;
11211;SDS011;5663;50.864;12.096;2023-11-19T08:18:59;0.73;;;0.70;;
11211;SDS011;5663;50.864;12.096;2023-11-19T08:21:27;2.60;;;1.10;;
11211;SDS011;5663;50.864;12.096;2023-11-19T08:24:10;1.23;;;1.10;;
11211;SDS011;5663;50.864;12.096;2023-11-19T08:26:41;3.23;;;1.37;;
11211;SDS011;5663;50.864;12.096;2023-11-19T08:29:18;3.20;;;1.30;;
11211;SDS011;5663;50.864;12.096;2023-11-19T08:31:54;1.87;;;1.57;;
11211;SDS011;5663;50.864;12.096;2023-11-19T08:34:28;3.30;;;1.60;;
11211;SDS011;5663;50.864;12.096;2023-11-19T08:36:56;2.43;;;1.50;;
11211;SDS011;5663;50.864;12.096;2023-11-19T08:39:33;2.60;;;1.30;;
11211;SDS011;5663;50.864;12.096;2023-11-19T08:42:25;3.47;;;1.10;;
11211;SDS011;5663;50.864;12.096;2023-11-19T08:44:55;2.40;;;1.57;;
11211;SDS011;5663;50.864;12.096;2023-11-19T08:47:23;1.97;;;1.70;;
11211;SDS011;5663;50.864;12.096;2023-11-19T08:49:54;3.87;;;1.50;;
11211;SDS011;5663;50.864;12.096;2023-11-19T08:52:24;4.97;;;2.13;;
11211;SDS011;5663;50.864;12.096;2023-11-19T08:54:57;2.00;;;1.80;;
11211;SDS011;5663;50.864;12.096;2023-11-19T08:57:25;3.10;;;1.90;;
11211;SDS011;5663;50.864;12.096;2023-11-19T08:59:57;2.67;;;1.30;;
11211;SDS011;5663;50.864;12.096;2023-11-19T09:02:27;3.30;;;1.27;;
11211;SDS011;5663;50.864;12.096;2023-11-19T09:05:00;1.83;;;1.00;;
11211;SDS011;5663;50.864;12.096;2023-11-19T09:07:29;2.10;;;0.83;;
11211;SDS011;5663;50.864;12.096;2023-11-19T09:09:58;2.73;;;1.20;;
11211;SDS011;5663;50.864;12.096;2023-11-19T09:12:26;2.37;;;1.20;;
11211;SDS011;5663;50.864;12.096;2023-11-19T09:14:54;2.37;;;1.00;;
11211;SDS011;5663;50.864;12.096;2023-11-19T09:17:23;0.90;;;0.77;;
11211;SDS011;5663;50.864;12.096;2023-11-19T09:19:57;2.07;;;0.93;;
11211;SDS011;5663;50.864;12.096;2023-11-19T09:22:28;0.90;;;0.70;;
11211;SDS011;5663;50.864;12.096;2023-11-19T09:24:56;0.93;;;0.70;;
11211;SDS011;5663;50.864;12.096;2023-11-19T09:27:30;0.97;;;0.77;;
11211;SDS011;5663;50.864;12.096;2023-11-19T09:29:59;0.70;;;0.70;;
11211;SDS011;5663;50.864;12.096;2023-11-19T09:32:29;0.90;;;0.80;;
11211;SDS011;5663;50.864;12.096;2023-11-19T09:34:58;1.00;;;0.83;;
11211;SDS011;5663;50.864;12.096;2023-11-19T09:37:28;1.57;;;0.77;;
11211;SDS011;5663;50.864;12.096;2023-11-19T09:39:58;1.47;;;1.00;;
11211;SDS011;5663;50.864;12.096;2023-11-19T09:42:27;1.23;;;0.93;;
11211;SDS011;5663;50.864;12.096;2023-11-19T09:44:55;2.07;;;1.03;;
11211;SDS011;5663;50.864;12.096;2023-11-19T09:47:26;1.27;;;0.80;;
11211;SDS011;5663;50.864;12.096;2023-11-19T09:49:57;4.43;;;1.37;;
11211;SDS011;5663;50.864;12.096;2023-11-19T09:52:26;2.00;;;1.43;;
11211;SDS011;5663;50.864;12.096;2023-11-19T09:54:54;1.47;;;1.00;;
11211;SDS011;5663;50.864;12.096;2023-11-19T09:57:27;2.47;;;1.20;;
11211;SDS011;5663;50.864;12.096;2023-11-19T10:00:00;4.20;;;1.40;;
11211;SDS011;5663;50.864;12.096;2023-11-19T10:02:33;3.47;;;1.20;;
11211;SDS011;5663;50.864;12.096;2023-11-19T10:05:06;6.37;;;1.40;;
11211;SDS011;5663;50.864;12.096;2023-11-19T10:07:37;4.33;;;1.00;;
11211;SDS011;5663;50.864;12.096;2023-11-19T10:10:18;5.40;;;1.47;;
11211;SDS011;5663;50.864;12.096;2023-11-19T10:12:51;8.23;;;1.73;;
11211;SDS011;5663;50.864;12.096;2023-11-19T10:15:21;3.40;;;1.50;;
11211;SDS011;5663;50.864;12.096;2023-11-19T10:17:55;2.77;;;1.50;;
11211;SDS011;5663;50.864;12.096;2023-11-19T10:20:23;5.57;;;1.30;;
11211;SDS011;5663;50.864;12.096;2023-11-19T10:22:52;3.00;;;1.40;;
11211;SDS011;5663;50.864;12.096;2023-11-19T10:25:22;5.60;;;1.60;;
11211;SDS011;5663;50.864;12.096;2023-11-19T10:27:54;5.43;;;1.63;;
11211;SDS011;5663;50.864;12.096;2023-11-19T10:30:23;4.73;;;1.50;;
11211;SDS011;5663;50.864;12.096;2023-11-19T10:33:05;3.83;;;1.70;;
11211;SDS011;5663;50.864;12.096;2023-11-19T10:35:34;3.23;;;1.30;;
11211;SDS011;5663;50.864;12.096;2023-11-19T10:38:14;5.93;;;1.60;;
11211;SDS011;5663;50.864;12.096;2023-11-19T10:40:47;3.97;;;1.50;;
11211;SDS011;5663;50.864;12.096;2023-11-19T10:43:16;8.20;;;1.53;;
11211;SDS011;5663;50.864;12.096;2023-11-19T10:45:46;7.47;;;2.40;;
11211;SDS011;5663;50.864;12.096;2023-11-19T10:48:15;10.57;;;2.07;;
11211;SDS011;5663;50.864;12.096;2023-11-19T10:50:44;6.97;;;2.23;;
11211;SDS011;5663;50.864;12.096;2023-11-19T10:53:31;8.53;;;2.40;;
11211;SDS011;5663;50.864;12.096;2023-11-19T10:56:03;8.37;;;2.43;;
11211;SDS011;5663;50.864;12.096;2023-11-19T10:59:05;7.23;;;2.20;;
11211;SDS011;5663;50.864;12.096;2023-11-19T11:01:43;5.93;;;2.27;;
11211;SDS011;5663;50.864;12.096;2023-11-19T11:04:19;8.17;;;2.53;;
11211;SDS011;5663;50.864;12.096;2023-11-19T11:07:22;6.77;;;2.60;;
11211;SDS011;5663;50.864;12.096;2023-11-19T11:10:37;8.73;;;2.30;;
11211;SDS011;5663;50.864;12.096;2023-11-19T11:13:10;4.53;;;1.80;;
11211;SDS011;5663;50.864;12.096;2023-11-19T11:15:42;8.80;;;2.00;;
11211;SDS011;5663;50.864;12.096;2023-11-19T11:18:15;6.70;;;2.10;;
11211;SDS011;5663;50.864;12.096;2023-11-19T11:20:43;8.23;;;2.37;;
11211;SDS011;5663;50.864;12.096;2023-11-19T11:23:17;9.83;;;2.53;;
11211;SDS011;5663;50.864;12.096;2023-11-19T11:26:09;4.40;;;2.13;;
11211;SDS011;5663;50.864;12.096;2023-11-19T11:28:56;9.57;;;2.43;;
11211;SDS011;5663;50.864;12.096;2023-11-19T11:31:31;3.83;;;1.90;;
11211;SDS011;5663;50.864;12.096;2023-11-19T11:34:17;6.17;;;2.40;;
11211;SDS011;5663;50.864;12.096;2023-11-19T11:37:10;6.87;;;2.10;;
11211;SDS011;5663;50.864;12.096;2023-11-19T11:39:45;6.40;;;2.70;;
11211;SDS011;5663;50.864;12.096;2023-11-19T11:45:02;7.30;;;1.93;;
11211;SDS011;5663;50.864;12.096;2023-11-19T11:50:47;5.90;;;2.27;;
11211;SDS011;5663;50.864;12.096;2023-11-19T11:53:23;8.03;;;2.10;;
11211;SDS011;5663;50.864;12.096;2023-11-19T11:55:56;7.07;;;2.17;;
11211;SDS011;5663;50.864;12.096;2023-11-19T11:58:35;4.87;;;1.83;;
11211;SDS011;5663;50.864;12.096;2023-11-19T12:01:14;8.50;;;2.03;;
11211;SDS011;5663;50.864;12.096;2023-11-19T12:03:48;6.60;;;2.20;;
11211;SDS011;5663;50.864;12.096;2023-11-19T12:06:20;9.87;;;2.70;;
11211;SDS011;5663;50.864;12.096;2023-11-19T12:08:49;8.13;;;2.77;;
11211;SDS011;5663;50.864;12.096;2023-11-19T12:11:17;6.40;;;2.40;;
11211;SDS011;5663;50.864;12.096;2023-11-19T12:13:56;8.53;;;1.90;;
11211;SDS011;5663;50.864;12.096;2023-11-19T12:16:28;9.73;;;2.33;;
11211;SDS011;5663;50.864;12.096;2023-11-19T12:19:04;10.63;;;2.50;;
11211;SDS011;5663;50.864;12.096;2023-11-19T12:21:33;5.50;;;2.03;;
11211;SDS011;5663;50.864;12.096;2023-11-19T12:24:04;7.67;;;2.50;;
11211;SDS011;5663;50.864;12.096;2023-11-19T12:26:34;7.43;;;2.00;;
11211;SDS011;5663;50.864;12.096;2023-11-19T12:29:03;8.83;;;2.40;;
11211;SDS011;5663;50.864;12.096;2023-11-19T12:31:32;9.00;;;2.70;;
11211;SDS011;5663;50.864;12.096;2023-11-19T12:34:09;9.30;;;2.17;;
11211;SDS011;5663;50.864;12.096;2023-11-19T12:36:40;8.03;;;2.10;;
11211;SDS011;5663;50.864;12.096;2023-11-19T12:39:10;11.73;;;2.30;;
11211;SDS011;5663;50.864;12.096;2023-11-19T12:41:52;6.20;;;2.27;;
11211;SDS011;5663;50.864;12.096;2023-11-19T12:44:23;7.50;;;2.20;;
11211;SDS011;5663;50.864;12.096;2023-11-19T12:47:02;11.43;;;2.67;;
11211;SDS011;5663;50.864;12.096;2023-11-19T12:49:33;12.53;;;2.47;;
11211;SDS011;5663;50.864;12.096;2023-11-19T12:52:01;8.43;;;2.33;;
11211;SDS011;5663;50.864;12.096;2023-11-19T12:54:39;6.13;;;2.27;;
11211;SDS011;5663;50.864;12.096;2023-11-19T12:57:08;5.20;;;2.20;;
11211;SDS011;5663;50.864;12.096;2023-11-19T12:59:36;8.73;;;2.83;;
11211;SDS011;5663;50.864;12.096;2023-11-19T13:02:04;7.83;;;2.33;;
11211;SDS011;5663;50.864;12.096;2023-11-19T13:04:34;8.63;;;3.30;;
11211;SDS011;5663;50.864;12.096;2023-11-19T13:07:04;7.17;;;2.33;;
11211;SDS011;5663;50.864;12.096;2023-11-19T13:09:32;5.03;;;1.90;;
11211;SDS011;5663;50.864;12.096;2023-11-19T13:12:11;9.57;;;2.80;;
11211;SDS011;5663;50.864;12.096;2023-11-19T13:14:41;10.83;;;2.17;;
11211;SDS011;5663;50.864;12.096;2023-11-19T13:17:14;5.43;;;1.90;;
11211;SDS011;5663;50.864;12.096;2023-11-19T13:19:44;8.40;;;2.70;;
11211;SDS011;5663;50.864;12.096;2023-11-19T13:22:16;9.07;;;2.40;;
11211;SDS011;5663;50.864;12.096;2023-11-19T13:24:46;11.43;;;2.57;;
11211;SDS011;5663;50.864;12.096;2023-11-19T13:27:18;7.00;;;2.40;;
11211;SDS011;5663;50.864;12.096;2023-11-19T13:29:49;6.10;;;2.00;;
11211;SDS011;5663;50.864;12.096;2023-11-19T13:32:18;4.40;;;1.80;;
11211;SDS011;5663;50.864;12.096;2023-11-19T13:34:47;11.23;;;2.20;;
11211;SDS011;5663;50.864;12.096;2023-11-19T13:37:19;6.00;;;2.03;;
11211;SDS011;5663;50.864;12.096;2023-11-19T13:40:13;8.93;;;2.03;;
11211;SDS011;5663;50.864;12.096;2023-11-19T13:42:59;8.90;;;2.00;;
11211;SDS011;5663;50.864;12.096;2023-11-19T13:45:35;7.07;;;2.40;;
11211;SDS011;5663;50.864;12.096;2023-11-19T13:48:21;5.07;;;2.30;;
11211;SDS011;5663;50.864;12.096;2023-11-19T13:51:13;9.63;;;2.90;;
11211;SDS011;5663;50.864;12.096;2023-11-19T13:53:40;7.43;;;2.43;;
11211;SDS011;5663;50.864;12.096;2023-11-19T13:56:09;6.40;;;2.27;;
11211;SDS011;5663;50.864;12.096;2023-11-19T13:58:37;9.37;;;2.60;;
11211;SDS011;5663;50.864;12.096;2023-11-19T14:01:06;7.30;;;2.90;;
11211;SDS011;5663;50.864;12.096;2023-11-19T14:03:34;8.13;;;2.20;;
11211;SDS011;5663;50.864;12.096;2023-11-19T14:06:02;9.50;;;2.17;;
11211;SDS011;5663;50.864;12.096;2023-11-19T14:08:33;7.10;;;1.87;;
11211;SDS011;5663;50.864;12.096;2023-11-19T14:11:01;6.60;;;2.13;;
11211;SDS011;5663;50.864;12.096;2023-11-19T14:13:29;7.43;;;2.17;;
11211;SDS011;5663;50.864;12.096;2023-11-19T14:15:57;5.43;;;1.80;;
11211;SDS011;5663;50.864;12.096;2023-11-19T14:18:25;6.00;;;1.87;;
11211;SDS011;5663;50.864;12.096;2023-11-19T14:20:53;7.13;;;2.47;;
11211;SDS011;5663;50.864;12.096;2023-11-19T14:23:21;11.13;;;2.13;;
11211;SDS011;5663;50.864;12.096;2023-11-19T14:25:51;7.33;;;2.03;;
11211;SDS011;5663;50.864;12.096;2023-11-19T14:28:19;10.07;;;2.37;;
11211;SDS011;5663;50.864;12.096;2023-11-19T14:30:47;5.23;;;1.73;;
11211;SDS011;5663;50.864;12.096;2023-11-19T14:33:21;8.57;;;2.30;;
11211;SDS011;5663;50.864;12.096;2023-11-19T14:35:49;7.77;;;2.10;;
11211;SDS011;5663;50.864;12.096;2023-11-19T14:38:17;8.10;;;2.03;;
11211;SDS011;5663;50.864;12.096;2023-11-19T14:40:45;7.50;;;2.83;;
11211;SDS011;5663;50.864;12.096;2023-11-19T14:43:15;9.60;;;3.07;;
11211;SDS011;5663;50.864;12.096;2023-11-19T14:45:43;12.30;;;3.50;;
11211;SDS011;5663;50.864;12.096;2023-11-19T14:48:11;10.07;;;3.10;;
11211;SDS011;5663;50.864;12.096;2023-11-19T14:50:40;6.97;;;2.63;;
11211;SDS011;5663;50.864;12.096;2023-11-19T14:53:08;7.93;;;2.13;;
11211;SDS011;5663;50.864;12.096;2023-11-19T14:55:36;7.90;;;1.93;;
11211;SDS011;5663;50.864;12.096;2023-11-19T14:58:04;7.13;;;2.00;;
11211;SDS011;5663;50.864;12.096;2023-11-19T15:00:34;8.13;;;2.47;;
11211;SDS011;5663;50.864;12.096;2023-11-19T15:03:01;9.87;;;1.90;;
11211;SDS011;5663;50.864;12.096;2023-11-19T15:05:30;5.20;;;2.10;;
11211;SDS011;5663;50.864;12.096;2023-11-19T15:07:57;7.90;;;2.57;;
11211;SDS011;5663;50.864;12.096;2023-11-19T15:10:26;8.70;;;2.40;;
11211;SDS011;5663;50.864;12.096;2023-11-19T15:12:54;8.17;;;2.10;;
11211;SDS011;5663;50.864;12.096;2023-11-19T15:15:21;7.80;;;2.40;;
11211;SDS011;5663;50.864;12.096;2023-11-19T15:17:51;10.67;;;2.80;;
11211;SDS011;5663;50.864;12.096;2023-11-19T15:20:28;5.10;;;1.97;;
11211;SDS011;5663;50.864;12.096;2023-11-19T15:22:57;7.67;;;2.27;;
11211;SDS011;5663;50.864;12.096;2023-11-19T15:25:24;5.53;;;2.40;;
11211;SDS011;5663;50.864;12.096;2023-11-19T15:28:01;8.70;;;2.60;;
11211;SDS011;5663;50.864;12.096;2023-11-19T15:30:30;13.27;;;2.97;;
11211;SDS011;5663;50.864;12.096;2023-11-19T15:32:59;9.27;;;3.10;;